sensor_id;sensor_type;location;lat;lon;timestamp;P1;durP1;ratioP1;P2;durP2;ratioP2
29422;SDS011;16399;51.686;8.684;2022-08-03T00:01:24;4.58;;;2.62;;
29422;SDS011;16399;51.686;8.684;2022-08-03T00:04:27;4.72;;;2.87;;
29422;SDS011;16399;51.686;8.684;2022-08-03T00:07:29;4.92;;;2.70;;
29422;SDS011;16399;51.686;8.684;2022-08-03T00:10:31;6.65;;;2.60;;
29422;SDS011;16399;51.686;8.684;2022-08-03T00:13:34;4.92;;;2.60;;
29422;SDS011;16399;51.686;8.684;2022-08-03T00:16:36;6.35;;;2.80;;
29422;SDS011;16399;51.686;8.684;2022-08-03T00:19:38;6.25;;;2.92;;
29422;SDS011;16399;51.686;8.684;2022-08-03T00:22:41;6.90;;;2.47;;
29422;SDS011;16399;51.686;8.684;2022-08-03T00:25:43;5.10;;;2.77;;
29422;SDS011;16399;51.686;8.684;2022-08-03T00:28:45;7.50;;;3.02;;
29422;SDS011;16399;51.686;8.684;2022-08-03T00:31:48;4.92;;;2.70;;
29422;SDS011;16399;51.686;8.684;2022-08-03T00:34:50;6.25;;;2.95;;
29422;SDS011;16399;51.686;8.684;2022-08-03T00:37:52;6.33;;;3.40;;
29422;SDS011;16399;51.686;8.684;2022-08-03T00:40:55;5.30;;;3.00;;
29422;SDS011;16399;51.686;8.684;2022-08-03T00:43:57;4.35;;;2.70;;
29422;SDS011;16399;51.686;8.684;2022-08-03T00:46:59;5.15;;;2.85;;
29422;SDS011;16399;51.686;8.684;2022-08-03T00:50:02;9.33;;;2.72;;
29422;SDS011;16399;51.686;8.684;2022-08-03T00:53:05;12.33;;;3.08;;
29422;SDS011;16399;51.686;8.684;2022-08-03T00:56:08;5.05;;;3.17;;
29422;SDS011;16399;51.686;8.684;2022-08-03T00:59:12;8.07;;;2.80;;
29422;SDS011;16399;51.686;8.684;2022-08-03T01:02:16;4.55;;;2.87;;
29422;SDS011;16399;51.686;8.684;2022-08-03T01:05:19;4.35;;;2.70;;
29422;SDS011;16399;51.686;8.684;2022-08-03T01:08:27;4.12;;;2.50;;
29422;SDS011;16399;51.686;8.684;2022-08-03T01:11:36;5.25;;;3.15;;
29422;SDS011;16399;51.686;8.684;2022-08-03T01:14:53;4.20;;;2.72;;
29422;SDS011;16399;51.686;8.684;2022-08-03T01:21:30;6.10;;;3.45;;
29422;SDS011;16399;51.686;8.684;2022-08-03T01:24:55;6.70;;;3.10;;
29422;SDS011;16399;51.686;8.684;2022-08-03T01:31:17;5.28;;;2.65;;
29422;SDS011;16399;51.686;8.684;2022-08-03T01:34:21;6.30;;;3.27;;
29422;SDS011;16399;51.686;8.684;2022-08-03T01:37:30;5.45;;;2.95;;
29422;SDS011;16399;51.686;8.684;2022-08-03T01:40:33;5.85;;;3.27;;
29422;SDS011;16399;51.686;8.684;2022-08-03T01:43:37;5.65;;;3.27;;
29422;SDS011;16399;51.686;8.684;2022-08-03T01:49:43;5.95;;;2.85;;
29422;SDS011;16399;51.686;8.684;2022-08-03T01:52:47;4.28;;;2.75;;
29422;SDS011;16399;51.686;8.684;2022-08-03T01:55:51;5.75;;;3.35;;
29422;SDS011;16399;51.686;8.684;2022-08-03T01:58:55;5.83;;;3.10;;
29422;SDS011;16399;51.686;8.684;2022-08-03T02:02:01;5.33;;;3.20;;
29422;SDS011;16399;51.686;8.684;2022-08-03T02:05:06;6.58;;;2.80;;
29422;SDS011;16399;51.686;8.684;2022-08-03T02:08:12;8.10;;;2.95;;
29422;SDS011;16399;51.686;8.684;2022-08-03T02:11:16;5.20;;;3.12;;
29422;SDS011;16399;51.686;8.684;2022-08-03T02:14:19;4.37;;;2.70;;
29422;SDS011;16399;51.686;8.684;2022-08-03T02:17:23;8.28;;;2.95;;
29422;SDS011;16399;51.686;8.684;2022-08-03T02:20:27;4.47;;;2.98;;
29422;SDS011;16399;51.686;8.684;2022-08-03T02:23:32;6.35;;;3.10;;
29422;SDS011;16399;51.686;8.684;2022-08-03T02:26:34;4.15;;;2.80;;
29422;SDS011;16399;51.686;8.684;2022-08-03T02:29:39;7.05;;;3.12;;
29422;SDS011;16399;51.686;8.684;2022-08-03T02:32:46;6.35;;;3.25;;
29422;SDS011;16399;51.686;8.684;2022-08-03T02:35:50;4.78;;;3.00;;
29422;SDS011;16399;51.686;8.684;2022-08-03T02:38:53;4.95;;;3.05;;
29422;SDS011;16399;51.686;8.684;2022-08-03T02:41:58;4.08;;;2.70;;
29422;SDS011;16399;51.686;8.684;2022-08-03T02:45:05;4.90;;;3.05;;
29422;SDS011;16399;51.686;8.684;2022-08-03T02:48:14;3.87;;;2.50;;
29422;SDS011;16399;51.686;8.684;2022-08-03T02:51:18;7.25;;;3.15;;
29422;SDS011;16399;51.686;8.684;2022-08-03T02:54:22;5.87;;;3.15;;
29422;SDS011;16399;51.686;8.684;2022-08-03T02:57:27;6.12;;;2.95;;
29422;SDS011;16399;51.686;8.684;2022-08-03T03:00:31;6.58;;;3.00;;
29422;SDS011;16399;51.686;8.684;2022-08-03T03:03:34;5.33;;;3.08;;
29422;SDS011;16399;51.686;8.684;2022-08-03T03:06:38;6.28;;;2.72;;
29422;SDS011;16399;51.686;8.684;2022-08-03T03:09:41;5.03;;;2.60;;
29422;SDS011;16399;51.686;8.684;2022-08-03T03:12:44;5.17;;;3.12;;
29422;SDS011;16399;51.686;8.684;2022-08-03T03:15:48;5.03;;;3.00;;
29422;SDS011;16399;51.686;8.684;2022-08-03T03:18:52;5.22;;;2.55;;
29422;SDS011;16399;51.686;8.684;2022-08-03T03:21:55;5.87;;;2.90;;
29422;SDS011;16399;51.686;8.684;2022-08-03T03:25:01;6.62;;;2.92;;
29422;SDS011;16399;51.686;8.684;2022-08-03T03:28:04;5.72;;;2.70;;
29422;SDS011;16399;51.686;8.684;2022-08-03T03:31:06;4.50;;;2.85;;
29422;SDS011;16399;51.686;8.684;2022-08-03T03:34:09;4.40;;;2.52;;
29422;SDS011;16399;51.686;8.684;2022-08-03T03:37:12;5.90;;;2.85;;
29422;SDS011;16399;51.686;8.684;2022-08-03T03:40:14;5.30;;;3.22;;
29422;SDS011;16399;51.686;8.684;2022-08-03T03:43:17;4.80;;;2.65;;
29422;SDS011;16399;51.686;8.684;2022-08-03T03:46:19;5.72;;;3.20;;
29422;SDS011;16399;51.686;8.684;2022-08-03T03:49:22;5.35;;;3.02;;
29422;SDS011;16399;51.686;8.684;2022-08-03T03:52:24;8.13;;;3.17;;
29422;SDS011;16399;51.686;8.684;2022-08-03T03:55:26;6.80;;;3.08;;
29422;SDS011;16399;51.686;8.684;2022-08-03T03:58:30;6.67;;;2.55;;
29422;SDS011;16399;51.686;8.684;2022-08-03T04:01:33;7.53;;;3.05;;
29422;SDS011;16399;51.686;8.684;2022-08-03T04:04:36;6.62;;;2.90;;
29422;SDS011;16399;51.686;8.684;2022-08-03T04:07:58;6.28;;;3.22;;
29422;SDS011;16399;51.686;8.684;2022-08-03T04:11:21;8.93;;;3.35;;
29422;SDS011;16399;51.686;8.684;2022-08-03T04:14:26;5.03;;;2.87;;
29422;SDS011;16399;51.686;8.684;2022-08-03T04:17:31;6.72;;;3.10;;
29422;SDS011;16399;51.686;8.684;2022-08-03T04:20:34;5.60;;;2.95;;
29422;SDS011;16399;51.686;8.684;2022-08-03T04:23:40;5.12;;;2.75;;
29422;SDS011;16399;51.686;8.684;2022-08-03T04:26:43;5.45;;;2.98;;
29422;SDS011;16399;51.686;8.684;2022-08-03T04:29:48;4.62;;;2.72;;
29422;SDS011;16399;51.686;8.684;2022-08-03T04:32:53;6.97;;;2.92;;
29422;SDS011;16399;51.686;8.684;2022-08-03T04:35:58;5.05;;;2.47;;
29422;SDS011;16399;51.686;8.684;2022-08-03T04:42:05;5.70;;;2.90;;
29422;SDS011;16399;51.686;8.684;2022-08-03T04:45:12;5.17;;;3.10;;
29422;SDS011;16399;51.686;8.684;2022-08-03T04:48:16;4.75;;;2.37;;
29422;SDS011;16399;51.686;8.684;2022-08-03T04:51:19;5.75;;;2.70;;
29422;SDS011;16399;51.686;8.684;2022-08-03T04:54:22;6.55;;;2.47;;
29422;SDS011;16399;51.686;8.684;2022-08-03T04:57:24;5.45;;;2.52;;
29422;SDS011;16399;51.686;8.684;2022-08-03T05:00:26;4.42;;;2.33;;
29422;SDS011;16399;51.686;8.684;2022-08-03T05:03:29;3.92;;;2.35;;
29422;SDS011;16399;51.686;8.684;2022-08-03T05:06:31;5.35;;;2.52;;
29422;SDS011;16399;51.686;8.684;2022-08-03T05:09:34;6.80;;;2.92;;
29422;SDS011;16399;51.686;8.684;2022-08-03T05:12:38;6.50;;;2.50;;
29422;SDS011;16399;51.686;8.684;2022-08-03T05:15:41;8.03;;;2.98;;
29422;SDS011;16399;51.686;8.684;2022-08-03T05:18:43;4.55;;;2.22;;
29422;SDS011;16399;51.686;8.684;2022-08-03T05:21:45;5.40;;;2.40;;
29422;SDS011;16399;51.686;8.684;2022-08-03T05:24:48;6.83;;;2.87;;
29422;SDS011;16399;51.686;8.684;2022-08-03T05:27:50;5.12;;;2.10;;
29422;SDS011;16399;51.686;8.684;2022-08-03T05:30:52;7.85;;;2.20;;
29422;SDS011;16399;51.686;8.684;2022-08-03T05:33:55;8.33;;;2.20;;
29422;SDS011;16399;51.686;8.684;2022-08-03T05:36:58;6.85;;;2.20;;
29422;SDS011;16399;51.686;8.684;2022-08-03T05:40:00;6.40;;;2.33;;
29422;SDS011;16399;51.686;8.684;2022-08-03T05:43:03;4.12;;;2.22;;
29422;SDS011;16399;51.686;8.684;2022-08-03T05:46:05;6.83;;;2.20;;
29422;SDS011;16399;51.686;8.684;2022-08-03T05:49:08;4.78;;;2.05;;
29422;SDS011;16399;51.686;8.684;2022-08-03T05:52:10;5.95;;;2.30;;
29422;SDS011;16399;51.686;8.684;2022-08-03T05:55:12;5.95;;;2.45;;
29422;SDS011;16399;51.686;8.684;2022-08-03T05:58:15;3.85;;;2.10;;
29422;SDS011;16399;51.686;8.684;2022-08-03T06:01:18;3.80;;;2.08;;
29422;SDS011;16399;51.686;8.684;2022-08-03T06:04:24;3.37;;;1.90;;
29422;SDS011;16399;51.686;8.684;2022-08-03T06:07:27;4.95;;;2.12;;
29422;SDS011;16399;51.686;8.684;2022-08-03T06:10:29;3.80;;;1.90;;
29422;SDS011;16399;51.686;8.684;2022-08-03T06:16:54;4.95;;;2.10;;
29422;SDS011;16399;51.686;8.684;2022-08-03T06:19:56;6.03;;;2.33;;
29422;SDS011;16399;51.686;8.684;2022-08-03T06:22:58;4.15;;;2.00;;
29422;SDS011;16399;51.686;8.684;2022-08-03T06:26:01;3.70;;;2.20;;
29422;SDS011;16399;51.686;8.684;2022-08-03T06:29:04;7.70;;;2.27;;
29422;SDS011;16399;51.686;8.684;2022-08-03T06:32:06;5.15;;;2.30;;
29422;SDS011;16399;51.686;8.684;2022-08-03T06:35:08;7.00;;;2.60;;
29422;SDS011;16399;51.686;8.684;2022-08-03T06:38:11;4.92;;;2.10;;
29422;SDS011;16399;51.686;8.684;2022-08-03T06:41:13;4.53;;;2.05;;
29422;SDS011;16399;51.686;8.684;2022-08-03T06:44:15;4.85;;;2.10;;
29422;SDS011;16399;51.686;8.684;2022-08-03T06:47:18;3.75;;;1.82;;
29422;SDS011;16399;51.686;8.684;2022-08-03T06:50:20;4.22;;;2.37;;
29422;SDS011;16399;51.686;8.684;2022-08-03T06:53:22;4.33;;;2.20;;
29422;SDS011;16399;51.686;8.684;2022-08-03T06:56:25;5.35;;;2.55;;
29422;SDS011;16399;51.686;8.684;2022-08-03T06:59:27;5.30;;;2.27;;
29422;SDS011;16399;51.686;8.684;2022-08-03T07:02:29;3.92;;;1.90;;
29422;SDS011;16399;51.686;8.684;2022-08-03T07:05:32;5.97;;;2.05;;
29422;SDS011;16399;51.686;8.684;2022-08-03T07:08:34;3.98;;;2.00;;
29422;SDS011;16399;51.686;8.684;2022-08-03T07:11:37;3.70;;;2.00;;
29422;SDS011;16399;51.686;8.684;2022-08-03T07:14:40;4.03;;;1.70;;
29422;SDS011;16399;51.686;8.684;2022-08-03T07:17:42;6.95;;;1.82;;
29422;SDS011;16399;51.686;8.684;2022-08-03T07:20:45;6.28;;;2.47;;
29422;SDS011;16399;51.686;8.684;2022-08-03T07:23:47;4.03;;;1.87;;
29422;SDS011;16399;51.686;8.684;2022-08-03T07:26:49;5.05;;;1.70;;
29422;SDS011;16399;51.686;8.684;2022-08-03T07:29:52;4.62;;;1.95;;
29422;SDS011;16399;51.686;8.684;2022-08-03T07:32:54;4.97;;;1.80;;
29422;SDS011;16399;51.686;8.684;2022-08-03T07:35:57;4.75;;;1.80;;
29422;SDS011;16399;51.686;8.684;2022-08-03T07:38:59;3.47;;;1.67;;
29422;SDS011;16399;51.686;8.684;2022-08-03T07:42:01;4.40;;;1.98;;
29422;SDS011;16399;51.686;8.684;2022-08-03T07:45:05;5.70;;;1.70;;
29422;SDS011;16399;51.686;8.684;2022-08-03T07:48:07;5.53;;;1.80;;
29422;SDS011;16399;51.686;8.684;2022-08-03T07:51:10;3.55;;;1.85;;
29422;SDS011;16399;51.686;8.684;2022-08-03T07:54:12;3.60;;;1.80;;
29422;SDS011;16399;51.686;8.684;2022-08-03T07:57:14;6.45;;;1.87;;
29422;SDS011;16399;51.686;8.684;2022-08-03T08:00:17;4.28;;;1.70;;
29422;SDS011;16399;51.686;8.684;2022-08-03T08:03:20;4.30;;;1.95;;
29422;SDS011;16399;51.686;8.684;2022-08-03T08:06:22;3.12;;;1.62;;
29422;SDS011;16399;51.686;8.684;2022-08-03T08:09:24;4.53;;;1.98;;
29422;SDS011;16399;51.686;8.684;2022-08-03T08:12:27;3.33;;;1.70;;
29422;SDS011;16399;51.686;8.684;2022-08-03T08:15:29;3.05;;;1.67;;
29422;SDS011;16399;51.686;8.684;2022-08-03T08:18:32;3.30;;;1.72;;
29422;SDS011;16399;51.686;8.684;2022-08-03T08:21:34;3.87;;;1.80;;
29422;SDS011;16399;51.686;8.684;2022-08-03T08:24:36;4.97;;;3.20;;
29422;SDS011;16399;51.686;8.684;2022-08-03T08:27:43;3.08;;;1.80;;
29422;SDS011;16399;51.686;8.684;2022-08-03T08:30:47;3.40;;;1.70;;
29422;SDS011;16399;51.686;8.684;2022-08-03T08:33:49;2.17;;;1.32;;
29422;SDS011;16399;51.686;8.684;2022-08-03T08:36:52;4.75;;;2.00;;
29422;SDS011;16399;51.686;8.684;2022-08-03T08:39:57;6.12;;;2.00;;
29422;SDS011;16399;51.686;8.684;2022-08-03T08:43:00;5.67;;;1.77;;
29422;SDS011;16399;51.686;8.684;2022-08-03T08:46:03;3.47;;;1.57;;
29422;SDS011;16399;51.686;8.684;2022-08-03T08:49:08;4.60;;;2.10;;
29422;SDS011;16399;51.686;8.684;2022-08-03T08:52:11;3.95;;;2.02;;
29422;SDS011;16399;51.686;8.684;2022-08-03T08:55:18;3.43;;;1.60;;
29422;SDS011;16399;51.686;8.684;2022-08-03T08:58:22;4.62;;;1.70;;
29422;SDS011;16399;51.686;8.684;2022-08-03T09:01:26;3.42;;;2.00;;
29422;SDS011;16399;51.686;8.684;2022-08-03T09:04:28;3.10;;;1.70;;
29422;SDS011;16399;51.686;8.684;2022-08-03T09:07:31;4.20;;;1.67;;
29422;SDS011;16399;51.686;8.684;2022-08-03T09:10:34;4.75;;;1.72;;
29422;SDS011;16399;51.686;8.684;2022-08-03T09:13:36;3.00;;;1.60;;
29422;SDS011;16399;51.686;8.684;2022-08-03T09:16:38;3.58;;;1.70;;
29422;SDS011;16399;51.686;8.684;2022-08-03T09:20:03;5.95;;;1.95;;
29422;SDS011;16399;51.686;8.684;2022-08-03T09:23:09;3.58;;;1.60;;
29422;SDS011;16399;51.686;8.684;2022-08-03T09:26:17;5.22;;;1.65;;
29422;SDS011;16399;51.686;8.684;2022-08-03T09:29:23;3.40;;;1.72;;
29422;SDS011;16399;51.686;8.684;2022-08-03T09:32:26;3.08;;;1.60;;
29422;SDS011;16399;51.686;8.684;2022-08-03T09:35:29;3.33;;;1.60;;
29422;SDS011;16399;51.686;8.684;2022-08-03T09:38:31;5.17;;;1.52;;
29422;SDS011;16399;51.686;8.684;2022-08-03T09:41:33;2.25;;;1.37;;
29422;SDS011;16399;51.686;8.684;2022-08-03T09:44:40;4.20;;;1.52;;
29422;SDS011;16399;51.686;8.684;2022-08-03T09:47:44;4.17;;;1.47;;
29422;SDS011;16399;51.686;8.684;2022-08-03T09:50:47;3.95;;;1.85;;
29422;SDS011;16399;51.686;8.684;2022-08-03T09:53:51;4.60;;;1.70;;
29422;SDS011;16399;51.686;8.684;2022-08-03T09:56:55;4.47;;;1.67;;
29422;SDS011;16399;51.686;8.684;2022-08-03T10:00:09;6.53;;;1.70;;
29422;SDS011;16399;51.686;8.684;2022-08-03T10:03:10;4.17;;;1.50;;
29422;SDS011;16399;51.686;8.684;2022-08-03T10:06:16;4.22;;;1.95;;
29422;SDS011;16399;51.686;8.684;2022-08-03T10:09:20;3.02;;;1.57;;
29422;SDS011;16399;51.686;8.684;2022-08-03T10:12:22;5.17;;;1.77;;
29422;SDS011;16399;51.686;8.684;2022-08-03T10:15:25;3.17;;;1.70;;
29422;SDS011;16399;51.686;8.684;2022-08-03T10:18:27;2.42;;;1.40;;
29422;SDS011;16399;51.686;8.684;2022-08-03T10:21:34;2.70;;;2.03;;
29422;SDS011;16399;51.686;8.684;2022-08-03T10:24:39;4.42;;;1.70;;
29422;SDS011;16399;51.686;8.684;2022-08-03T10:27:46;3.35;;;1.60;;
29422;SDS011;16399;51.686;8.684;2022-08-03T10:30:51;4.85;;;1.90;;
29422;SDS011;16399;51.686;8.684;2022-08-03T10:33:55;3.33;;;1.80;;
29422;SDS011;16399;51.686;8.684;2022-08-03T10:36:59;3.85;;;1.47;;
29422;SDS011;16399;51.686;8.684;2022-08-03T10:40:06;3.17;;;1.80;;
29422;SDS011;16399;51.686;8.684;2022-08-03T10:43:17;2.70;;;1.57;;
29422;SDS011;16399;51.686;8.684;2022-08-03T10:46:24;5.78;;;1.50;;
29422;SDS011;16399;51.686;8.684;2022-08-03T10:49:27;3.52;;;1.70;;
29422;SDS011;16399;51.686;8.684;2022-08-03T10:52:31;3.80;;;1.70;;
29422;SDS011;16399;51.686;8.684;2022-08-03T10:55:34;4.62;;;1.70;;
29422;SDS011;16399;51.686;8.684;2022-08-03T10:59:04;3.65;;;1.52;;
29422;SDS011;16399;51.686;8.684;2022-08-03T11:02:06;5.65;;;1.90;;
29422;SDS011;16399;51.686;8.684;2022-08-03T11:05:24;5.87;;;1.45;;
29422;SDS011;16399;51.686;8.684;2022-08-03T11:08:32;5.90;;;1.72;;
29422;SDS011;16399;51.686;8.684;2022-08-03T11:11:37;2.90;;;1.60;;
29422;SDS011;16399;51.686;8.684;2022-08-03T11:14:44;4.90;;;1.60;;
29422;SDS011;16399;51.686;8.684;2022-08-03T11:18:03;5.37;;;1.50;;
29422;SDS011;16399;51.686;8.684;2022-08-03T11:20:57;4.33;;;1.70;;
29422;SDS011;16399;51.686;8.684;2022-08-03T11:24:00;4.42;;;1.92;;
29422;SDS011;16399;51.686;8.684;2022-08-03T11:27:18;5.70;;;1.90;;
29422;SDS011;16399;51.686;8.684;2022-08-03T11:30:22;5.45;;;1.80;;
29422;SDS011;16399;51.686;8.684;2022-08-03T11:33:29;4.60;;;1.83;;
29422;SDS011;16399;51.686;8.684;2022-08-03T11:40:10;7.20;;;1.72;;
29422;SDS011;16399;51.686;8.684;2022-08-03T11:46:37;4.10;;;1.72;;
29422;SDS011;16399;51.686;8.684;2022-08-03T11:49:40;4.42;;;2.10;;
29422;SDS011;16399;51.686;8.684;2022-08-03T11:52:43;4.08;;;1.70;;
29422;SDS011;16399;51.686;8.684;2022-08-03T11:55:45;7.03;;;1.85;;
29422;SDS011;16399;51.686;8.684;2022-08-03T11:58:49;4.95;;;2.30;;
29422;SDS011;16399;51.686;8.684;2022-08-03T12:02:04;3.15;;;1.80;;
29422;SDS011;16399;51.686;8.684;2022-08-03T12:04:58;6.78;;;2.40;;
29422;SDS011;16399;51.686;8.684;2022-08-03T12:08:03;2.20;;;1.42;;
29422;SDS011;16399;51.686;8.684;2022-08-03T12:11:06;6.28;;;1.55;;
29422;SDS011;16399;51.686;8.684;2022-08-03T12:14:13;3.80;;;1.70;;
29422;SDS011;16399;51.686;8.684;2022-08-03T12:17:15;3.05;;;1.72;;
29422;SDS011;16399;51.686;8.684;2022-08-03T12:20:21;4.12;;;2.00;;
29422;SDS011;16399;51.686;8.684;2022-08-03T12:23:25;3.33;;;1.90;;
29422;SDS011;16399;51.686;8.684;2022-08-03T12:26:28;4.95;;;1.98;;
29422;SDS011;16399;51.686;8.684;2022-08-03T12:29:32;4.95;;;1.87;;
29422;SDS011;16399;51.686;8.684;2022-08-03T12:32:34;3.40;;;1.70;;
29422;SDS011;16399;51.686;8.684;2022-08-03T12:35:37;6.67;;;1.67;;
29422;SDS011;16399;51.686;8.684;2022-08-03T12:38:39;4.67;;;1.70;;
29422;SDS011;16399;51.686;8.684;2022-08-03T12:41:41;5.90;;;1.90;;
29422;SDS011;16399;51.686;8.684;2022-08-03T12:44:44;4.28;;;2.22;;
29422;SDS011;16399;51.686;8.684;2022-08-03T12:47:49;3.75;;;1.65;;
29422;SDS011;16399;51.686;8.684;2022-08-03T12:51:06;6.12;;;1.90;;
29422;SDS011;16399;51.686;8.684;2022-08-03T12:53:58;4.22;;;2.05;;
29422;SDS011;16399;51.686;8.684;2022-08-03T12:57:11;4.07;;;2.10;;
29422;SDS011;16399;51.686;8.684;2022-08-03T13:00:14;5.17;;;2.05;;
29422;SDS011;16399;51.686;8.684;2022-08-03T13:03:19;3.08;;;1.60;;
29422;SDS011;16399;51.686;8.684;2022-08-03T13:06:23;3.92;;;2.02;;
29422;SDS011;16399;51.686;8.684;2022-08-03T13:12:28;7.87;;;2.12;;
29422;SDS011;16399;51.686;8.684;2022-08-03T13:15:31;3.33;;;2.00;;
29422;SDS011;16399;51.686;8.684;2022-08-03T13:18:33;4.10;;;1.82;;
29422;SDS011;16399;51.686;8.684;2022-08-03T13:21:36;4.47;;;1.82;;
29422;SDS011;16399;51.686;8.684;2022-08-03T13:24:39;4.08;;;2.00;;
29422;SDS011;16399;51.686;8.684;2022-08-03T13:27:41;3.62;;;1.82;;
29422;SDS011;16399;51.686;8.684;2022-08-03T13:30:44;3.10;;;1.90;;
29422;SDS011;16399;51.686;8.684;2022-08-03T13:33:46;3.67;;;2.08;;
29422;SDS011;16399;51.686;8.684;2022-08-03T13:36:48;5.62;;;2.10;;
29422;SDS011;16399;51.686;8.684;2022-08-03T13:39:51;8.93;;;1.80;;
29422;SDS011;16399;51.686;8.684;2022-08-03T13:42:53;6.75;;;1.80;;
29422;SDS011;16399;51.686;8.684;2022-08-03T13:45:56;5.70;;;1.77;;
29422;SDS011;16399;51.686;8.684;2022-08-03T13:48:58;5.72;;;1.90;;
29422;SDS011;16399;51.686;8.684;2022-08-03T13:52:01;4.70;;;1.80;;
29422;SDS011;16399;51.686;8.684;2022-08-03T13:55:04;4.67;;;1.90;;
29422;SDS011;16399;51.686;8.684;2022-08-03T13:58:07;4.70;;;2.00;;
29422;SDS011;16399;51.686;8.684;2022-08-03T14:01:11;3.45;;;1.95;;
29422;SDS011;16399;51.686;8.684;2022-08-03T14:04:13;3.12;;;1.70;;
29422;SDS011;16399;51.686;8.684;2022-08-03T14:07:16;5.05;;;2.10;;
29422;SDS011;16399;51.686;8.684;2022-08-03T14:10:18;3.70;;;1.70;;
29422;SDS011;16399;51.686;8.684;2022-08-03T14:13:21;7.28;;;1.95;;
29422;SDS011;16399;51.686;8.684;2022-08-03T14:16:24;2.72;;;1.70;;
29422;SDS011;16399;51.686;8.684;2022-08-03T14:19:26;4.12;;;1.87;;
29422;SDS011;16399;51.686;8.684;2022-08-03T14:22:29;4.45;;;2.12;;
29422;SDS011;16399;51.686;8.684;2022-08-03T14:25:31;3.62;;;1.60;;
29422;SDS011;16399;51.686;8.684;2022-08-03T14:28:33;4.47;;;1.45;;
29422;SDS011;16399;51.686;8.684;2022-08-03T14:31:36;4.47;;;1.55;;
29422;SDS011;16399;51.686;8.684;2022-08-03T14:34:38;4.85;;;1.80;;
29422;SDS011;16399;51.686;8.684;2022-08-03T14:37:41;2.85;;;1.52;;
29422;SDS011;16399;51.686;8.684;2022-08-03T14:40:43;6.47;;;1.90;;
29422;SDS011;16399;51.686;8.684;2022-08-03T14:43:46;4.45;;;1.75;;
29422;SDS011;16399;51.686;8.684;2022-08-03T14:46:49;4.20;;;1.75;;
29422;SDS011;16399;51.686;8.684;2022-08-03T14:49:51;3.15;;;1.50;;
29422;SDS011;16399;51.686;8.684;2022-08-03T14:52:53;6.15;;;1.72;;
29422;SDS011;16399;51.686;8.684;2022-08-03T14:55:56;3.92;;;1.67;;
29422;SDS011;16399;51.686;8.684;2022-08-03T14:58:58;4.67;;;1.52;;
29422;SDS011;16399;51.686;8.684;2022-08-03T15:02:00;5.92;;;1.85;;
29422;SDS011;16399;51.686;8.684;2022-08-03T15:05:03;8.18;;;1.62;;
29422;SDS011;16399;51.686;8.684;2022-08-03T15:08:05;4.40;;;1.40;;
29422;SDS011;16399;51.686;8.684;2022-08-03T15:11:07;4.78;;;1.40;;
29422;SDS011;16399;51.686;8.684;2022-08-03T15:14:10;8.65;;;1.50;;
29422;SDS011;16399;51.686;8.684;2022-08-03T15:17:12;3.33;;;1.35;;
29422;SDS011;16399;51.686;8.684;2022-08-03T15:20:14;5.95;;;1.62;;
29422;SDS011;16399;51.686;8.684;2022-08-03T15:23:17;5.58;;;1.75;;
29422;SDS011;16399;51.686;8.684;2022-08-03T15:26:19;5.15;;;1.52;;
29422;SDS011;16399;51.686;8.684;2022-08-03T15:29:21;5.17;;;1.60;;
29422;SDS011;16399;51.686;8.684;2022-08-03T15:32:24;4.78;;;1.50;;
29422;SDS011;16399;51.686;8.684;2022-08-03T15:35:26;3.52;;;1.47;;
29422;SDS011;16399;51.686;8.684;2022-08-03T15:38:29;3.35;;;1.60;;
29422;SDS011;16399;51.686;8.684;2022-08-03T15:41:31;4.05;;;1.42;;
29422;SDS011;16399;51.686;8.684;2022-08-03T15:44:33;3.40;;;1.65;;
29422;SDS011;16399;51.686;8.684;2022-08-03T15:47:35;3.05;;;1.40;;
29422;SDS011;16399;51.686;8.684;2022-08-03T15:50:38;4.92;;;1.77;;
29422;SDS011;16399;51.686;8.684;2022-08-03T15:53:40;5.37;;;2.08;;
29422;SDS011;16399;51.686;8.684;2022-08-03T15:56:42;4.90;;;1.55;;
29422;SDS011;16399;51.686;8.684;2022-08-03T15:59:45;4.40;;;1.85;;
29422;SDS011;16399;51.686;8.684;2022-08-03T16:02:48;5.78;;;1.60;;
29422;SDS011;16399;51.686;8.684;2022-08-03T16:05:50;4.67;;;1.45;;
29422;SDS011;16399;51.686;8.684;2022-08-03T16:08:52;3.52;;;1.60;;
29422;SDS011;16399;51.686;8.684;2022-08-03T16:11:55;3.52;;;1.55;;
29422;SDS011;16399;51.686;8.684;2022-08-03T16:14:57;3.77;;;1.52;;
29422;SDS011;16399;51.686;8.684;2022-08-03T16:18:01;7.47;;;1.30;;
29422;SDS011;16399;51.686;8.684;2022-08-03T16:21:03;3.70;;;1.70;;
29422;SDS011;16399;51.686;8.684;2022-08-03T16:24:05;4.15;;;1.67;;
29422;SDS011;16399;51.686;8.684;2022-08-03T16:27:07;6.75;;;1.85;;
29422;SDS011;16399;51.686;8.684;2022-08-03T16:30:10;4.58;;;1.60;;
29422;SDS011;16399;51.686;8.684;2022-08-03T16:33:16;3.12;;;1.62;;
29422;SDS011;16399;51.686;8.684;2022-08-03T16:36:18;8.90;;;1.98;;
29422;SDS011;16399;51.686;8.684;2022-08-03T16:39:20;7.05;;;1.50;;
29422;SDS011;16399;51.686;8.684;2022-08-03T16:42:22;4.35;;;1.85;;
29422;SDS011;16399;51.686;8.684;2022-08-03T16:45:25;3.12;;;1.62;;
29422;SDS011;16399;51.686;8.684;2022-08-03T16:48:27;5.92;;;1.55;;
29422;SDS011;16399;51.686;8.684;2022-08-03T16:51:29;7.00;;;1.32;;
29422;SDS011;16399;51.686;8.684;2022-08-03T16:54:32;5.17;;;1.60;;
29422;SDS011;16399;51.686;8.684;2022-08-03T16:57:34;2.65;;;1.40;;
29422;SDS011;16399;51.686;8.684;2022-08-03T17:00:36;6.25;;;1.52;;
29422;SDS011;16399;51.686;8.684;2022-08-03T17:03:39;4.55;;;1.50;;
29422;SDS011;16399;51.686;8.684;2022-08-03T17:06:41;3.02;;;1.45;;
29422;SDS011;16399;51.686;8.684;2022-08-03T17:09:45;4.40;;;1.62;;
29422;SDS011;16399;51.686;8.684;2022-08-03T17:12:48;3.08;;;1.50;;
29422;SDS011;16399;51.686;8.684;2022-08-03T17:15:50;6.55;;;1.80;;
29422;SDS011;16399;51.686;8.684;2022-08-03T17:18:55;3.95;;;1.82;;
29422;SDS011;16399;51.686;8.684;2022-08-03T17:22:04;4.10;;;1.80;;
29422;SDS011;16399;51.686;8.684;2022-08-03T17:28:15;6.72;;;2.00;;
29422;SDS011;16399;51.686;8.684;2022-08-03T17:31:18;7.50;;;1.67;;
29422;SDS011;16399;51.686;8.684;2022-08-03T17:37:24;7.17;;;1.98;;
29422;SDS011;16399;51.686;8.684;2022-08-03T17:40:27;5.28;;;3.47;;
29422;SDS011;16399;51.686;8.684;2022-08-03T17:43:29;5.72;;;2.05;;
29422;SDS011;16399;51.686;8.684;2022-08-03T17:46:34;5.12;;;2.05;;
29422;SDS011;16399;51.686;8.684;2022-08-03T17:49:36;5.17;;;1.57;;
29422;SDS011;16399;51.686;8.684;2022-08-03T17:52:39;8.18;;;1.70;;
29422;SDS011;16399;51.686;8.684;2022-08-03T17:55:46;5.03;;;1.50;;
29422;SDS011;16399;51.686;8.684;2022-08-03T17:58:55;8.48;;;2.12;;
29422;SDS011;16399;51.686;8.684;2022-08-03T18:02:04;4.37;;;1.80;;
29422;SDS011;16399;51.686;8.684;2022-08-03T18:05:23;4.85;;;1.30;;
29422;SDS011;16399;51.686;8.684;2022-08-03T18:08:29;5.72;;;1.70;;
29422;SDS011;16399;51.686;8.684;2022-08-03T18:11:35;3.92;;;1.70;;
29422;SDS011;16399;51.686;8.684;2022-08-03T18:14:45;5.67;;;1.87;;
29422;SDS011;16399;51.686;8.684;2022-08-03T18:17:51;5.35;;;1.72;;
29422;SDS011;16399;51.686;8.684;2022-08-03T18:20:54;4.73;;;1.60;;
29422;SDS011;16399;51.686;8.684;2022-08-03T18:23:58;5.47;;;1.97;;
29422;SDS011;16399;51.686;8.684;2022-08-03T18:27:00;5.95;;;2.60;;
29422;SDS011;16399;51.686;8.684;2022-08-03T18:30:05;4.40;;;1.50;;
29422;SDS011;16399;51.686;8.684;2022-08-03T18:33:08;6.97;;;1.98;;
29422;SDS011;16399;51.686;8.684;2022-08-03T18:36:12;4.80;;;2.08;;
29422;SDS011;16399;51.686;8.684;2022-08-03T18:39:19;3.92;;;1.62;;
29422;SDS011;16399;51.686;8.684;2022-08-03T18:42:21;5.70;;;1.87;;
29422;SDS011;16399;51.686;8.684;2022-08-03T18:45:24;3.35;;;1.50;;
29422;SDS011;16399;51.686;8.684;2022-08-03T18:48:27;5.95;;;1.60;;
29422;SDS011;16399;51.686;8.684;2022-08-03T18:51:32;4.53;;;1.60;;
29422;SDS011;16399;51.686;8.684;2022-08-03T18:54:41;6.03;;;1.70;;
29422;SDS011;16399;51.686;8.684;2022-08-03T18:57:51;4.30;;;1.92;;
29422;SDS011;16399;51.686;8.684;2022-08-03T19:01:07;4.37;;;1.80;;